createdAt,value
2023-01-25T00:00:13.728Z,255.30
2023-01-25T00:02:50.864Z,255.10
2023-01-25T00:05:03.522Z,243.10
2023-01-25T00:07:15.525Z,251.50
2023-01-25T00:09:27.659Z,257.30
2023-01-25T00:11:39.821Z,238.20
2023-01-25T00:13:54.180Z,256.40
2023-01-25T00:16:07.138Z,253.10
2023-01-25T00:18:19.292Z,264.20
2023-01-25T00:20:31.582Z,250.20
2023-01-25T00:22:43.377Z,259.30
2023-01-25T00:24:55.485Z,246.30
2023-01-25T00:27:07.157Z,244.20
2023-01-25T00:29:19.371Z,239.30
2023-01-25T00:31:34.123Z,233.30
2023-01-25T00:34:01.705Z,233.70
2023-01-25T00:36:38.567Z,220.30
2023-01-25T00:38:54.235Z,224.10
2023-01-25T00:41:10.221Z,233.30
2023-01-25T00:43:22.115Z,224.00
2023-01-25T00:45:33.739Z,257.60
2023-01-25T00:47:45.488Z,238.50
2023-01-25T00:49:57.586Z,271.60
2023-01-25T00:52:09.992Z,243.00
2023-01-25T00:54:23.224Z,260.90
2023-01-25T00:56:35.262Z,236.10
2023-01-25T00:58:47.309Z,240.30
2023-01-25T01:01:01.810Z,226.20
2023-01-25T01:03:14.573Z,219.70
2023-01-25T01:05:27.700Z,224.50
2023-01-25T01:07:41.738Z,228.90
2023-01-25T01:09:53.526Z,242.20
2023-01-25T01:12:05.519Z,217.80
2023-01-25T01:14:17.616Z,231.60
2023-01-25T01:16:29.452Z,214.00
2023-01-25T01:18:44.884Z,232.10
2023-01-25T01:20:57.082Z,228.30
2023-01-25T01:23:08.773Z,213.10
2023-01-25T01:25:20.561Z,226.60
2023-01-25T01:27:32.571Z,215.80
2023-01-25T01:29:44.858Z,208.40
2023-01-25T01:31:56.647Z,202.60
2023-01-25T01:34:12.846Z,200.80
2023-01-25T01:36:27.190Z,194.70
2023-01-25T01:38:39.185Z,198.10
2023-01-25T01:40:51.692Z,195.50
2023-01-25T01:43:07.109Z,206.00
2023-01-25T01:45:49.523Z,215.90
2023-01-25T01:48:04.861Z,220.60
2023-01-25T01:50:24.799Z,203.10
2023-01-25T01:52:38.469Z,216.80
2023-01-25T01:55:00.072Z,212.60
2023-01-25T01:57:20.185Z,216.50
2023-01-25T01:59:37.792Z,209.30
2023-01-25T02:01:49.512Z,215.50
2023-01-25T02:04:03.220Z,201.00
2023-01-25T02:06:30.267Z,200.30
2023-01-25T02:08:44.050Z,190.80
2023-01-25T02:10:56.142Z,201.30
2023-01-25T02:13:08.606Z,195.80
2023-01-25T02:15:20.290Z,209.60
2023-01-25T02:17:37.635Z,203.30
2023-01-25T02:20:08.763Z,204.40
2023-01-25T02:22:31.499Z,207.00
2023-01-25T02:24:51.551Z,201.90
2023-01-25T02:27:03.783Z,211.80
2023-01-25T02:29:15.578Z,229.60
2023-01-25T02:31:28.576Z,221.80
2023-01-25T02:33:40.900Z,236.60
2023-01-25T02:36:07.946Z,249.40
2023-01-25T02:38:21.544Z,256.80
2023-01-25T02:40:46.983Z,243.60
2023-01-25T02:42:58.982Z,243.50
2023-01-25T02:45:15.274Z,230.70
2023-01-25T02:47:27.574Z,224.30
2023-01-25T02:49:39.165Z,208.00
2023-01-25T02:51:57.813Z,207.80
2023-01-25T02:54:11.578Z,211.10
2023-01-25T02:56:24.464Z,204.20
2023-01-25T02:58:36.662Z,200.30
2023-01-25T03:00:48.861Z,207.00
2023-01-25T03:03:01.047Z,193.90
2023-01-25T03:05:13.058Z,199.10
2023-01-25T03:07:25.361Z,189.30
2023-01-25T03:09:37.590Z,196.30
2023-01-25T03:11:49.656Z,171.60
2023-01-25T03:14:02.268Z,169.90
2023-01-25T03:16:14.814Z,180.00
2023-01-25T03:18:27.699Z,161.30
2023-01-25T03:20:39.994Z,171.80
2023-01-25T03:22:51.681Z,165.70
2023-01-25T03:25:03.475Z,158.60
2023-01-25T03:27:17.406Z,151.10
2023-01-25T03:29:35.767Z,153.10
2023-01-25T03:31:48.037Z,159.20
2023-01-25T03:34:00.046Z,171.30
2023-01-25T03:36:15.542Z,157.30
2023-01-25T03:38:28.449Z,148.20
2023-01-25T03:40:41.256Z,150.90
2023-01-25T03:42:53.892Z,154.10
2023-01-25T03:45:06.754Z,166.20
2023-01-25T03:47:18.875Z,176.00
2023-01-25T03:49:30.972Z,163.30
2023-01-25T03:51:42.657Z,168.80
2023-01-25T03:53:54.861Z,167.90
2023-01-25T03:56:09.729Z,165.00
2023-01-25T03:58:22.232Z,172.20
2023-01-25T04:00:34.861Z,160.90
2023-01-25T04:02:47.652Z,154.10
2023-01-25T04:05:01.594Z,138.40
2023-01-25T04:07:14.130Z,148.50
2023-01-25T04:09:26.400Z,174.20
2023-01-25T04:11:40.855Z,160.20
2023-01-25T04:13:52.277Z,160.60
2023-01-25T04:16:09.883Z,156.90
2023-01-25T04:18:57.208Z,151.10
2023-01-25T04:21:09.587Z,144.20
2023-01-25T04:23:21.796Z,137.40
2023-01-25T04:25:34.326Z,149.00
2023-01-25T04:27:46.493Z,137.90
2023-01-25T04:30:00.336Z,134.50
2023-01-25T04:32:12.698Z,134.00
2023-01-25T04:34:24.729Z,138.10
2023-01-25T04:36:37.340Z,147.50
2023-01-25T04:38:49.030Z,147.00
2023-01-25T04:41:00.819Z,134.00
2023-01-25T04:43:15.167Z,126.30
2023-01-25T04:45:27.160Z,124.80
2023-01-25T04:47:38.976Z,130.20
2023-01-25T04:49:50.944Z,123.50
2023-01-25T04:52:05.192Z,117.80
2023-01-25T04:54:17.290Z,124.40
2023-01-25T04:56:28.976Z,121.00
2023-01-25T04:58:41.181Z,136.30
2023-01-25T05:00:52.846Z,122.10
2023-01-25T05:03:05.195Z,132.50
2023-01-25T05:05:17.263Z,125.70
2023-01-25T05:07:30.491Z,128.20
2023-01-25T05:09:42.791Z,119.80
2023-01-25T05:11:55.500Z,114.70
2023-01-25T05:14:17.222Z,115.30
2023-01-25T05:16:31.005Z,133.20
2023-01-25T05:18:48.740Z,127.10
2023-01-25T05:21:26.283Z,155.20
2023-01-25T05:23:38.483Z,165.60
2023-01-25T05:26:09.117Z,155.30
2023-01-25T05:28:21.551Z,118.10
2023-01-25T05:30:59.968Z,135.90
2023-01-25T05:33:12.404Z,259.40
2023-01-25T05:35:24.434Z,229.30
2023-01-25T05:37:37.862Z,233.00
2023-01-25T05:39:52.314Z,206.40
2023-01-25T05:42:09.023Z,148.80
2023-01-25T05:44:21.323Z,129.90
2023-01-25T05:46:33.622Z,163.60
2023-01-25T05:48:48.586Z,128.80
2023-01-25T05:51:00.911Z,108.90
2023-01-25T05:53:13.607Z,99.10
2023-01-25T05:55:25.599Z,103.80
2023-01-25T05:57:38.002Z,99.40
2023-01-25T05:59:49.992Z,95.40
2023-01-25T06:02:03.899Z,105.80
2023-01-25T06:04:17.157Z,128.90
2023-01-25T06:06:29.152Z,95.50
2023-01-25T06:08:41.809Z,67.50
2023-01-25T06:10:53.755Z,93.20
2023-01-25T06:13:05.545Z,107.90
2023-01-25T06:15:17.438Z,84.70
2023-01-25T06:17:29.433Z,58.30
2023-01-25T06:19:48.120Z,62.60
2023-01-25T06:22:21.072Z,56.70
2023-01-25T06:24:32.848Z,67.00
2023-01-25T06:26:44.966Z,66.60
2023-01-25T06:28:57.392Z,69.00
2023-01-25T06:31:12.563Z,78.20
2023-01-25T06:33:24.428Z,70.40
2023-01-25T06:35:36.929Z,79.60
2023-01-25T06:37:48.821Z,66.90
2023-01-25T06:40:00.638Z,69.70
2023-01-25T06:42:12.204Z,74.70
2023-01-25T06:44:24.114Z,88.70
2023-01-25T06:46:35.757Z,124.00
2023-01-25T06:48:48.085Z,89.00
2023-01-25T06:51:04.899Z,89.80
2023-01-25T06:53:16.477Z,64.90
2023-01-25T06:55:28.263Z,62.10
2023-01-25T06:57:40.052Z,51.50
2023-01-25T06:59:52.161Z,62.00
2023-01-25T07:02:04.298Z,100.10
2023-01-25T07:04:16.547Z,64.20
2023-01-25T07:06:33.514Z,67.30
2023-01-25T07:08:45.867Z,51.80
2023-01-25T07:11:00.415Z,66.10
2023-01-25T07:13:12.000Z,86.90
2023-01-25T07:15:24.001Z,88.20
2023-01-25T07:17:36.132Z,91.50
2023-01-25T07:19:48.165Z,72.90
2023-01-25T07:21:59.876Z,65.10
2023-01-25T07:24:15.603Z,66.70
2023-01-25T07:26:29.166Z,59.20
2023-01-25T07:28:41.505Z,62.50
2023-01-25T07:30:53.596Z,59.80
2023-01-25T07:33:07.805Z,54.80
2023-01-25T07:35:19.596Z,55.00
2023-01-25T07:37:31.425Z,58.10
2023-01-25T07:39:48.698Z,61.20
2023-01-25T07:42:00.548Z,55.70
2023-01-25T07:44:16.926Z,53.60
2023-01-25T07:46:35.209Z,57.90
2023-01-25T07:48:52.997Z,63.60
2023-01-25T07:51:12.500Z,60.50
2023-01-25T07:53:24.463Z,67.10
2023-01-25T07:55:36.566Z,54.50
2023-01-25T07:57:48.671Z,48.90
2023-01-25T08:00:00.753Z,43.60
2023-01-25T08:02:12.849Z,50.90
2023-01-25T08:04:24.960Z,53.30
2023-01-25T08:06:39.403Z,58.70
2023-01-25T08:08:51.803Z,50.50
2023-01-25T08:11:13.559Z,56.50
2023-01-25T08:13:26.649Z,69.70
2023-01-25T08:15:39.777Z,74.80
2023-01-25T08:17:51.865Z,84.40
2023-01-25T08:20:05.191Z,126.10
2023-01-25T08:22:16.880Z,94.40
2023-01-25T08:24:29.497Z,83.50
2023-01-25T08:26:41.382Z,62.10
2023-01-25T08:28:54.605Z,73.50
2023-01-25T08:31:13.628Z,81.90
2023-01-25T08:33:25.658Z,85.80
2023-01-25T08:35:37.756Z,121.50
2023-01-25T08:37:49.552Z,92.50
2023-01-25T08:40:02.943Z,88.00
2023-01-25T08:42:14.880Z,126.50
2023-01-25T08:44:26.688Z,91.30
2023-01-25T08:46:38.445Z,63.10
2023-01-25T08:48:57.917Z,55.80
2023-01-25T08:51:13.234Z,58.50
2023-01-25T08:53:28.816Z,64.50
2023-01-25T08:55:43.183Z,62.80
2023-01-25T08:57:57.342Z,57.30
2023-01-25T09:00:10.504Z,67.50
2023-01-25T09:02:22.691Z,62.60
2023-01-25T09:04:34.473Z,75.60
2023-01-25T09:06:46.161Z,89.40
2023-01-25T09:08:59.761Z,70.90
2023-01-25T09:11:18.292Z,74.60
2023-01-25T09:13:30.131Z,67.50
2023-01-25T09:15:41.900Z,64.50
2023-01-25T09:17:55.801Z,64.00
2023-01-25T09:20:11.606Z,57.80
2023-01-25T09:22:23.846Z,72.60
2023-01-25T09:24:37.324Z,63.80
2023-01-25T09:26:59.078Z,62.10
2023-01-25T09:29:12.135Z,58.60
2023-01-25T09:31:24.988Z,62.30
2023-01-25T09:33:48.805Z,81.20
2023-01-25T09:36:01.823Z,176.40
2023-01-25T09:38:13.453Z,125.30
2023-01-25T09:40:32.057Z,104.70
2023-01-25T09:43:25.704Z,109.10
2023-01-25T09:45:37.865Z,70.50
2023-01-25T09:48:00.328Z,75.50
2023-01-25T09:50:25.677Z,63.90
2023-01-25T09:53:10.547Z,67.10
2023-01-25T09:55:27.252Z,52.20
2023-01-25T09:57:41.057Z,64.30
2023-01-25T09:59:54.110Z,67.00
2023-01-25T10:02:13.992Z,67.70
2023-01-25T10:04:30.909Z,64.80
2023-01-25T10:06:58.913Z,134.30
2023-01-25T10:09:37.706Z,144.60
2023-01-25T10:11:49.581Z,154.50
2023-01-25T10:14:01.475Z,133.30
2023-01-25T10:16:25.069Z,79.20
2023-01-25T10:18:48.929Z,83.70
2023-01-25T10:21:12.070Z,73.90
2023-01-25T10:23:42.085Z,109.70
2023-01-25T10:26:04.624Z,155.50
2023-01-25T10:28:45.091Z,85.50
2023-01-25T10:31:18.191Z,74.50
2023-01-25T10:33:37.532Z,71.60
2023-01-25T10:35:50.467Z,86.20
2023-01-25T10:38:13.616Z,92.50
2023-01-25T10:40:28.573Z,72.00
2023-01-25T10:42:46.760Z,72.90
2023-01-25T10:44:58.611Z,67.90
2023-01-25T10:47:22.486Z,65.20
2023-01-25T10:49:59.535Z,111.30
2023-01-25T10:52:20.573Z,156.90
2023-01-25T10:54:32.063Z,116.20
2023-01-25T10:56:46.116Z,93.60
2023-01-25T10:59:29.373Z,93.60
2023-01-25T11:01:41.554Z,72.00
2023-01-25T11:03:54.137Z,85.20
2023-01-25T11:06:07.563Z,78.60
2023-01-25T11:08:26.015Z,85.10
2023-01-25T11:10:38.324Z,93.80
2023-01-25T11:13:13.878Z,98.40
2023-01-25T11:15:26.061Z,111.80
2023-01-25T11:17:38.771Z,88.90
2023-01-25T11:20:25.895Z,79.50
2023-01-25T11:22:37.578Z,80.80
2023-01-25T11:24:50.506Z,87.10
2023-01-25T11:27:20.928Z,102.80
2023-01-25T11:29:33.067Z,115.60
2023-01-25T11:31:51.684Z,85.10
2023-01-25T11:34:10.875Z,92.80
2023-01-25T11:36:36.292Z,85.40
2023-01-25T11:39:19.058Z,95.90
2023-01-25T11:41:38.424Z,99.70
2023-01-25T11:44:05.883Z,91.00
2023-01-25T11:46:55.455Z,74.90
2023-01-25T11:49:17.280Z,72.20
2023-01-25T11:51:40.152Z,76.00
2023-01-25T11:54:04.725Z,76.40
2023-01-25T11:56:26.754Z,76.00
2023-01-25T11:59:03.922Z,76.30
2023-01-25T12:01:41.041Z,86.70
2023-01-25T12:04:30.902Z,82.60
2023-01-25T12:07:06.548Z,88.40
2023-01-25T12:09:27.407Z,95.20
2023-01-25T12:12:00.646Z,97.70
2023-01-25T12:14:36.512Z,83.40
2023-01-25T12:17:07.073Z,77.60
2023-01-25T12:19:35.417Z,84.00
2023-01-25T12:24:34.422Z,67.70
2023-01-25T12:26:51.739Z,62.30
2023-01-25T12:29:48.788Z,66.30
2023-01-25T12:32:25.361Z,88.60
2023-01-25T12:34:40.530Z,81.20
2023-01-25T12:36:52.831Z,75.90
2023-01-25T12:39:10.764Z,89.30
2023-01-25T12:41:32.063Z,98.00
2023-01-25T12:43:49.881Z,96.00
2023-01-25T12:46:12.177Z,80.30
2023-01-25T12:48:38.064Z,79.90
2023-01-25T12:50:56.152Z,86.00
2023-01-25T12:53:17.519Z,103.00
2023-01-25T12:55:30.022Z,80.70
2023-01-25T12:58:07.719Z,85.20
2023-01-25T13:00:29.716Z,82.70
2023-01-25T13:03:20.167Z,80.00
2023-01-25T13:05:48.733Z,101.00
2023-01-25T13:08:48.991Z,105.70
2023-01-25T13:11:10.788Z,80.00
2023-01-25T13:13:28.663Z,103.90
2023-01-25T13:15:43.578Z,98.70
2023-01-25T13:17:55.265Z,104.40
2023-01-25T13:20:41.826Z,96.20
2023-01-25T13:23:01.698Z,280.60
2023-01-25T13:25:22.467Z,217.00
2023-01-25T13:27:36.701Z,334.90
2023-01-25T13:29:56.222Z,362.20
2023-01-25T13:32:33.359Z,328.70
2023-01-25T13:34:45.351Z,183.70
2023-01-25T13:36:57.553Z,122.20
2023-01-25T13:39:41.537Z,139.00
2023-01-25T13:42:05.878Z,130.20
2023-01-25T13:44:28.608Z,104.60
2023-01-25T13:46:40.517Z,109.80
2023-01-25T13:48:59.265Z,94.20
2023-01-25T13:51:15.459Z,91.20
2023-01-25T13:53:35.393Z,82.30
2023-01-25T13:55:57.081Z,79.90
2023-01-25T13:58:20.362Z,104.60
2023-01-25T14:00:32.341Z,102.30
2023-01-25T14:02:47.293Z,107.20
2023-01-25T14:05:00.197Z,109.50
2023-01-25T14:07:18.026Z,99.30
2023-01-25T14:09:30.538Z,112.10
2023-01-25T14:12:03.603Z,115.70
2023-01-25T14:14:24.939Z,103.60
2023-01-25T14:16:37.199Z,101.90
2023-01-25T14:18:50.273Z,117.20
2023-01-25T14:21:18.401Z,109.00
2023-01-25T14:23:34.470Z,100.90
2023-01-25T14:25:49.082Z,114.30
2023-01-25T14:28:03.329Z,120.70
2023-01-25T14:30:18.994Z,113.30
2023-01-25T14:32:30.592Z,125.90
2023-01-25T14:34:42.854Z,99.40
2023-01-25T14:37:18.647Z,116.30
2023-01-25T14:39:30.220Z,349.10
2023-01-25T14:41:55.191Z,195.60
2023-01-25T14:44:15.309Z,158.30
2023-01-25T14:46:35.583Z,148.00
2023-01-25T14:48:47.295Z,165.50
2023-01-25T14:51:17.309Z,158.80
2023-01-25T14:53:29.199Z,147.80
2023-01-25T14:55:45.596Z,146.00
2023-01-25T14:58:00.562Z,140.70
2023-01-25T15:00:23.496Z,138.40
2023-01-25T15:02:48.545Z,139.20
2023-01-25T15:05:14.663Z,140.10
2023-01-25T15:07:43.130Z,128.80
2023-01-25T15:10:16.443Z,158.30
2023-01-25T15:12:32.918Z,277.30
2023-01-25T15:14:53.669Z,199.00
2023-01-25T15:17:05.340Z,123.00
2023-01-25T15:19:30.881Z,127.30
2023-01-25T15:21:42.445Z,160.10
2023-01-25T15:23:56.539Z,213.20
2023-01-25T15:26:23.222Z,208.00
2023-01-25T15:28:37.471Z,173.70
2023-01-25T15:30:50.129Z,216.10
2023-01-25T15:33:02.381Z,216.30
2023-01-25T15:35:13.964Z,239.70
2023-01-25T15:37:25.652Z,230.20
2023-01-25T15:39:38.512Z,227.30
2023-01-25T15:41:58.935Z,197.70
2023-01-25T15:44:15.530Z,198.00
2023-01-25T15:46:31.906Z,187.50
2023-01-25T15:48:45.796Z,182.50
2023-01-25T15:50:58.106Z,167.70
2023-01-25T15:53:15.725Z,186.00
2023-01-25T15:55:27.413Z,172.40
2023-01-25T15:57:39.105Z,162.10
2023-01-25T15:59:50.699Z,151.70
2023-01-25T16:02:03.338Z,133.30
2023-01-25T16:04:15.698Z,132.50
2023-01-25T16:06:42.014Z,150.60
2023-01-25T16:08:54.544Z,139.40
2023-01-25T16:11:06.231Z,150.00
2023-01-25T16:13:18.525Z,158.00
2023-01-25T16:15:30.213Z,145.60
2023-01-25T16:17:42.002Z,160.90
2023-01-25T16:19:53.690Z,142.30
2023-01-25T16:22:05.281Z,143.80
2023-01-25T16:24:18.050Z,159.40
2023-01-25T16:26:30.346Z,149.50
2023-01-25T16:28:42.283Z,144.30
2023-01-25T16:30:54.585Z,155.60
2023-01-25T16:33:06.990Z,153.00
2023-01-25T16:35:21.242Z,163.20
2023-01-25T16:37:33.848Z,157.80
2023-01-25T16:39:45.790Z,165.10
2023-01-25T16:41:59.269Z,170.50
2023-01-25T16:44:14.460Z,169.50
2023-01-25T16:46:30.118Z,187.80
2023-01-25T16:48:42.983Z,164.10
2023-01-25T16:50:55.379Z,183.60
2023-01-25T16:53:07.380Z,168.80
2023-01-25T16:55:19.880Z,170.30
2023-01-25T16:57:31.991Z,208.90
2023-01-25T16:59:44.177Z,231.30
2023-01-25T17:01:55.967Z,241.50
2023-01-25T17:04:16.506Z,212.30
2023-01-25T17:06:32.451Z,226.50
2023-01-25T17:08:45.158Z,250.40
2023-01-25T17:10:57.671Z,250.60
2023-01-25T17:13:09.002Z,210.60
2023-01-25T17:15:20.840Z,190.80
2023-01-25T17:17:32.537Z,204.70
2023-01-25T17:19:44.826Z,361.40
2023-01-25T17:21:59.279Z,263.30
2023-01-25T17:24:18.458Z,249.00
2023-01-25T17:26:32.580Z,223.50
2023-01-25T17:28:45.401Z,210.10
2023-01-25T17:30:59.010Z,212.40
2023-01-25T17:33:13.094Z,277.70
2023-01-25T17:35:24.632Z,396.00
2023-01-25T17:37:38.215Z,297.30
2023-01-25T17:39:50.083Z,483.50
2023-01-25T17:42:01.975Z,493.90
2023-01-25T17:44:17.661Z,359.30
2023-01-25T17:46:33.524Z,444.10
2023-01-25T17:48:45.537Z,415.40
2023-01-25T17:51:02.164Z,455.90
2023-01-25T17:53:13.930Z,254.20
2023-01-25T17:55:25.832Z,220.90
2023-01-25T17:57:38.842Z,208.10
2023-01-25T17:59:50.994Z,191.20
2023-01-25T18:02:04.190Z,162.00
2023-01-25T18:04:18.130Z,169.80
2023-01-25T18:06:31.429Z,152.80
2023-01-25T18:08:46.445Z,190.80
2023-01-25T18:10:59.317Z,194.20
2023-01-25T18:13:15.409Z,210.10
2023-01-25T18:15:30.264Z,206.10
2023-01-25T18:17:42.971Z,200.90
2023-01-25T18:19:56.297Z,214.30
2023-01-25T18:22:08.090Z,244.00
2023-01-25T18:24:31.821Z,246.30
2023-01-25T18:26:43.445Z,259.10
2023-01-25T18:28:59.709Z,246.30
2023-01-25T18:31:17.478Z,269.10
2023-01-25T18:33:29.566Z,252.00
2023-01-25T18:35:43.505Z,249.60
2023-01-25T18:37:56.015Z,229.30
2023-01-25T18:40:11.762Z,258.10
2023-01-25T18:42:26.426Z,250.20
2023-01-25T18:44:38.559Z,223.70
2023-01-25T18:46:50.854Z,234.50
2023-01-25T18:49:02.752Z,225.10
2023-01-25T18:51:17.774Z,218.50
2023-01-25T18:53:32.060Z,222.80
2023-01-25T18:55:44.255Z,251.70
2023-01-25T18:57:57.590Z,253.30
2023-01-25T19:00:11.246Z,243.40
2023-01-25T19:02:24.484Z,227.90
2023-01-25T19:04:36.091Z,226.20
2023-01-25T19:06:49.815Z,229.20
2023-01-25T19:09:01.659Z,221.40
2023-01-25T19:11:15.994Z,225.30
2023-01-25T19:13:31.314Z,246.00
2023-01-25T19:16:06.702Z,231.20
2023-01-25T19:18:18.610Z,211.80
2023-01-25T19:20:31.220Z,216.10
2023-01-25T19:22:42.933Z,201.20
2023-01-25T19:24:54.522Z,196.10
2023-01-25T19:27:06.493Z,198.50
2023-01-25T19:29:19.303Z,208.00
2023-01-25T19:31:35.829Z,211.20
2023-01-25T19:33:49.332Z,214.10
2023-01-25T19:36:32.705Z,217.20
2023-01-25T19:38:57.570Z,223.20
2023-01-25T19:41:52.585Z,200.00
2023-01-25T19:44:31.032Z,210.70
2023-01-25T19:50:24.080Z,204.50
2023-01-25T19:55:11.919Z,212.80
2023-01-25T19:57:26.152Z,234.10
2023-01-25T19:59:40.414Z,251.80
2023-01-25T20:02:48.438Z,258.10
2023-01-25T20:05:38.119Z,259.70
2023-01-25T20:08:02.163Z,246.50
2023-01-25T20:10:15.692Z,245.10
2023-01-25T20:12:28.711Z,243.10
2023-01-25T20:14:41.832Z,246.80
2023-01-25T20:16:53.646Z,238.20
2023-01-25T20:19:05.615Z,240.80
2023-01-25T20:21:20.388Z,248.90
2023-01-25T20:23:35.147Z,328.90
2023-01-25T20:25:56.040Z,270.50
2023-01-25T20:28:08.445Z,248.00
2023-01-25T20:30:27.213Z,227.10
2023-01-25T20:32:40.151Z,226.70
2023-01-25T20:34:55.384Z,219.70
2023-01-25T20:37:07.385Z,223.80
2023-01-25T20:39:21.857Z,221.90
2023-01-25T20:41:34.345Z,202.00
2023-01-25T20:43:50.967Z,204.30
2023-01-25T20:46:03.653Z,220.40
2023-01-25T20:48:16.364Z,218.20
2023-01-25T20:50:29.348Z,225.10
2023-01-25T20:52:41.278Z,225.10
2023-01-25T20:54:54.088Z,220.60
2023-01-25T20:57:06.083Z,220.30
2023-01-25T20:59:19.443Z,208.10
2023-01-25T21:01:36.846Z,215.00
2023-01-25T21:03:49.916Z,226.00
2023-01-25T21:06:03.947Z,213.00
2023-01-25T21:08:17.548Z,235.10
2023-01-25T21:10:30.015Z,213.20
2023-01-25T21:12:42.641Z,224.90
2023-01-25T21:14:54.738Z,215.70
2023-01-25T21:17:08.678Z,230.10
2023-01-25T21:19:23.237Z,223.80
2023-01-25T21:21:35.744Z,233.70
2023-01-25T21:23:50.056Z,223.50
2023-01-25T21:26:03.219Z,258.80
2023-01-25T21:28:16.130Z,262.30
2023-01-25T21:30:28.737Z,235.30
2023-01-25T21:32:40.628Z,237.00
2023-01-25T21:34:52.247Z,244.00
2023-01-25T21:37:04.925Z,267.00
2023-01-25T21:39:16.544Z,274.80
2023-01-25T21:41:33.797Z,276.70
2023-01-25T21:44:07.981Z,266.60
2023-01-25T21:46:25.891Z,259.10
2023-01-25T21:48:56.199Z,233.70
2023-01-25T21:51:30.835Z,240.80
2023-01-25T21:53:47.441Z,224.40
2023-01-25T21:55:59.431Z,210.50
2023-01-25T21:58:11.730Z,217.90
2023-01-25T22:00:23.330Z,224.00
2023-01-25T22:02:35.737Z,235.80
2023-01-25T22:04:47.785Z,232.50
2023-01-25T22:06:59.704Z,234.20
2023-01-25T22:09:15.495Z,236.00
2023-01-25T22:11:27.596Z,233.80
2023-01-25T22:13:39.890Z,235.70
2023-01-25T22:15:51.966Z,233.70
2023-01-25T22:18:04.973Z,213.90
2023-01-25T22:20:16.883Z,231.70
2023-01-25T22:22:28.284Z,220.30
2023-01-25T22:24:40.009Z,205.30
2023-01-25T22:27:04.560Z,218.40
2023-01-25T22:29:16.256Z,210.00
2023-01-25T22:31:30.635Z,202.40
2023-01-25T22:33:43.096Z,205.50
2023-01-25T22:35:54.784Z,207.00
2023-01-25T22:38:06.371Z,223.50
2023-01-25T22:40:18.470Z,220.10
2023-01-25T22:42:30.168Z,228.30
2023-01-25T22:44:41.951Z,234.40
2023-01-25T22:46:54.145Z,224.80
2023-01-25T22:49:06.244Z,226.60
2023-01-25T22:51:26.221Z,237.40
2023-01-25T22:53:38.319Z,223.30
2023-01-25T22:55:49.908Z,217.90
2023-01-25T22:58:01.844Z,237.70
2023-01-25T23:00:26.039Z,233.10
2023-01-25T23:02:49.707Z,232.50
2023-01-25T23:05:10.769Z,227.90
2023-01-25T23:07:24.001Z,233.10
2023-01-25T23:09:36.487Z,234.60
2023-01-25T23:11:48.581Z,244.90
2023-01-25T23:14:19.844Z,240.00
2023-01-25T23:16:33.362Z,245.30
2023-01-25T23:18:51.400Z,223.80
2023-01-25T23:21:04.310Z,226.50
2023-01-25T23:23:16.305Z,219.90
2023-01-25T23:25:29.528Z,226.20
2023-01-25T23:27:41.112Z,233.70
2023-01-25T23:29:52.705Z,233.00
2023-01-25T23:32:04.700Z,235.40
2023-01-25T23:34:16.794Z,247.50
2023-01-25T23:36:31.452Z,224.80
2023-01-25T23:38:44.316Z,230.10
2023-01-25T23:41:00.944Z,223.90
2023-01-25T23:43:12.761Z,228.10
2023-01-25T23:45:24.649Z,240.20
2023-01-25T23:47:36.437Z,218.20
2023-01-25T23:49:48.131Z,222.70
2023-01-25T23:51:59.914Z,222.20
2023-01-25T23:54:11.912Z,223.80
2023-01-25T23:56:23.471Z,229.30
2023-01-25T23:58:36.855Z,224.50
